METAR Analyzer

一覧表示

Hello, Guest. (Login)

TNCM/SXM  -  プリンセス・ジュリアナ/セントマーティン

観測日時
2021-11-28 20:00 (UTC) (67分前)
気温
30
露点
23
湿数
7
相対湿度
66.2%
QNH
1014hPa
推定現地気圧
1013.5hPa
推定海面気圧
1014.0hPa
体感温度
25.2
(無風時)
28
HI
34.1
気温前日比
±0
体感温度前日比
-0.2
HI前日比
±0
水平視程
>10000m
鉛直視程
データなし
雲底高度
No dense clouds
V/I
VMC (VFR)
RVR
No RVR data
卓越風
6kt from 110°
ガスト
No gust
降水
報告なし
その他の天気
報告なし
少しの雲 @ 1800ft AGL

TNCM 282000Z 11006KT 9999 FEW018 30/23 Q1014 NOSIG

TIST/STT  -  シリル・E・キング

観測日時
2021-11-28 20:53 (UTC) (14分前)
気温
28.3
露点
21.7
湿数
6.6
相対湿度
67.5%
QNH
1012.9hPa
推定現地気圧
1012.1hPa
推定海面気圧
1012.9hPa
体感温度
22.9
(無風時)
26.8
HI
30.9
気温前日比
+0.5
体感温度前日比
+1.3
HI前日比
+0.7
水平視程
>10SM
鉛直視程
データなし
雲底高度
No dense clouds
V/I
VMC (VFR)
RVR
No RVR data
卓越風
8kt from 120°
ガスト
No gust
降水
報告なし
その他の天気
報告なし
目立った雲なし

TIST 282053Z 12008KT 10SM CLR 28/22 A2991 RMK AO2 SLP128 T02830217 55001

MUHA/HAV  -  ホセ・マルティ

観測日時
2021-11-28 19:50 (UTC) (77分前)
気温
26
露点
16
湿数
10
相対湿度
54.1%
QNH
1015hPa
推定現地気圧
1007.3hPa
推定海面気圧
1014.7hPa
体感温度
20.5
(無風時)
24.2
HI
26.1
気温前日比
±0
体感温度前日比
+1.1
HI前日比
-0.1
水平視程
9000m
鉛直視程
データなし
雲底高度
No dense clouds
V/I
VMC (VFR)
RVR
No RVR data
卓越風
4kt from 340° (280° ~ 360°)
ガスト
No gust
降水
報告なし
その他の天気
報告なし
少しの雲 @ 3000ft AGL

MUHA 281950Z 34004KT 280V360 9000 FEW030 26/16 Q1015

MDSD/SDQ  -  ラス・アメリカス

観測日時
2021-11-28 20:00 (UTC) (67分前)
気温
30
露点
23
湿数
7
相対湿度
66.2%
QNH
1012hPa
推定現地気圧
1010.0hPa
推定海面気圧
1011.9hPa
体感温度
24.8
(無風時)
28
HI
34.1
気温前日比
±0
体感温度前日比
-0.3
HI前日比
+0.8
水平視程
>10000m
鉛直視程
データなし
雲底高度
No dense clouds
V/I
VMC (VFR)
RVR
No RVR data
卓越風
8kt from 170°
ガスト
No gust
降水
報告なし
その他の天気
報告なし
散在する雲 @ 2200ft AGL

MDSD 282000Z 17008KT 9999 SCT022 30/23 Q1012 NOSIG

MDPC/PUJ  -  プンタ・カーナ

観測日時
2021-11-28 20:00 (UTC) (67分前)
気温
29
露点
23
湿数
6
相対湿度
70.1%
QNH
1013hPa
推定現地気圧
1011.3hPa
推定海面気圧
1012.9hPa
体感温度
23.4
(無風時)
27.5
HI
32.8
気温前日比
+1
体感温度前日比
+0.3
HI前日比
+3.1
水平視程
>10000m
鉛直視程
データなし
雲底高度
No dense clouds
V/I
VMC (VFR)
RVR
No RVR data
卓越風
12kt from 60°
ガスト
No gust
降水
報告なし
その他の天気
報告なし
少しの雲 @ 2300ft AGL

MDPC 282000Z 06012KT 9999 FEW023 29/23 Q1013

TJSJ/SJU  -  ルイス・ムニョス・マリン

観測日時
2021-11-28 20:56 (UTC) (11分前)
気温
28.3
露点
22.8
湿数
5.5
相対湿度
72.1%
QNH
1012.9hPa
推定現地気圧
1012.5hPa
推定海面気圧
1012.8hPa
体感温度
22.7
(無風時)
27.1
HI
31.6
気温前日比
+0.5
体感温度前日比
+0.1
HI前日比
+1.7
水平視程
>10SM
鉛直視程
データなし
雲底高度
No dense clouds
V/I
VMC (VFR)
RVR
No RVR data
卓越風
11kt from 70°
ガスト
No gust
降水
報告なし
その他の天気
報告なし
少しの雲 @ 2600ft AGL / 少しの雲 @ 3400ft AGL / 散在する雲 @ 6000ft AGL

TJSJ 282056Z 07011KT 10SM FEW026 FEW034 SCT060 28/23 A2991 RMK AO2 SLP126 VCSH S-SW T02830228 55003

10.8msec